Delmar, NY (12054)

7:26 AM EDT on August 30, 2015 (GMT -0400)
Kenholm | | Change Station
CLOSE
Current Station
Personal Weather Station
Location: Delmar, NY
Elevation: 213 ft
Nearby Weather Stations

Elev 213 ft 42.62 °N, 73.81 °W | Updated 11 days ago

Fog
Fog
74 °F
Feels Like 74 °F
N
2
Wind Variable Wind from SSE
Gusts mph

Today
High -- | Low -- °F
--% Chance of Precip.
Yesterday
High -- | Low -- °F
Precip. -- in
6:17 AM 7:33 PM
Full, 99% visible
Pressure 30.09 in
Visibility 10.0 miles
Clouds Few 6500 ft
Scattered Clouds 8000 ft
Mostly Cloudy 11000 ft
Mostly Cloudy 18000 ft
Mostly Cloudy 27000 ft
Dew Point 62 °F
Humidity 67%
Rainfall in
Snow Depth Not available.
UV 0 out of 12
Pollen 9.20 out of 12
Air Quality Not available.
Flu Activity Not available.
METAR KALB 301051Z 00000KT 10SM MIFG FEW065 SCT080 BKN110 BKN180 BKN270 17/14 A3009 RMK AO2 SLP188 MIFG S T01670144
Pressure 30.09 in
Visibility 10.0 miles
Clouds Few 6500 ft
Scattered Clouds 8000 ft
Mostly Cloudy 11000 ft
Mostly Cloudy 18000 ft
Mostly Cloudy 27000 ft
Dew Point 62 °F
Humidity 67%
Rainfall in
Snow Depth Not available.
UV 0 out of 12
Pollen 9.20 out of 12
Air Quality Not available.
Flu Activity Not available.
METAR KALB 301051Z 00000KT 10SM MIFG FEW065 SCT080 BKN110 BKN180 BKN270 17/14 A3009 RMK AO2 SLP188 MIFG S T01670144

10-Day Weather Forecast

×

Almanac

Astronomy

Aug. 30, 2015 Rise Set
Actual Time
Civil Twilight
Nautical Twilight
Astronomical Twilight
Moon
Length of Visible Light
Length of Day
Tomorrow will be .
, % of the Moon is Illuminated

Today's Extremes

State Highs State Lows

Community

WunderPhotos

Upload Photos

1,850,929 photos uploaded!

WunderBlogs® & News

Nearby

Air Quality

  Air Quality AQ Index Pollutant
Not available.

Snow Depth

Station Depth Elevation

Earthquake Activity

City Distance Mag. Time & Date
Minimum magnitude displayed is 2.5.

Coastal Water Temperatures

Place Temperature

Stations

Nearby Weather Stations

Station Location Temp. Windchill Dew Point Humidity Wind Precip. Elev Updated Type